Time;durP1;ratioP1;P1;durP2;ratioP2;P2;SDS_P1;SDS_P2;PMS_P1;PMS_P2;Temp;Humidity;BMP_temperature;BMP_pressure;BME280_temperature;BME280_humidity;BME280_pressure;Samples;Min_cycle;Max_cycle;Signal;HPM_P1;HPM_P2
2023/05/28 00:00:26;;;;;;;;;;;;;;;9.18;89.68;102215.59;5046503;28;20011;-74
2023/05/28 00:03:11;;;;;;;;;;;;;;;9.15;90.11;102212.56;5083587;28;20000;-75
2023/05/28 00:05:55;;;;;;;;;;;;;;;9.21;89.59;102208.97;5069051;28;19946;-73
2023/05/28 00:08:39;;;;;;;;;;;;;;;9.09;89.93;102202.78;5071709;28;20497;-73
2023/05/28 00:11:05;;;;;;;;;;;;;;;9.03;90.20;102197.28;5064869;28;20016;-72
2023/05/28 00:13:31;;;;;;;;;;;;;;;8.95;90.80;102189.56;5062462;28;19934;-73
2023/05/28 00:15:57;;;;;;;;;;;;;;;8.90;90.93;102205.44;5064325;28;20024;-73
2023/05/28 00:18:23;;;;;;;;;;;;;;;8.88;91.55;102214.72;5036324;28;19946;-73
2023/05/28 00:20:49;;;;;;;;;;;;;;;8.82;91.65;102208.41;5065070;28;20002;-73
2023/05/28 00:23:16;;;;;;;;;;;;;;;8.85;91.92;102210.63;5053024;28;19937;-74
2023/05/28 00:25:42;;;;;;;;;;;;;;;8.80;91.66;102207.81;5054384;28;20464;-73
2023/05/28 00:28:07;;;;;;;;;;;;;;;8.73;91.97;102213.22;5055848;28;20002;-74
2023/05/28 00:30:33;;;;;;;;;;;;;;;8.66;91.70;102206.31;5070380;28;19939;-74
2023/05/28 00:32:58;;;;;;;;;;;;;;;8.59;92.34;102213.56;5067849;28;19992;-73
2023/05/28 00:35:25;;;;;;;;;;;;;;;8.54;92.24;102210.75;5063786;28;20052;-73
2023/05/28 00:37:52;;;;;;;;;;;;;;;8.48;92.68;102209.78;5055057;28;19959;-74
2023/05/28 00:40:18;;;;;;;;;;;;;;;8.47;92.80;102216.97;5039939;28;19938;-77
2023/05/28 00:42:44;;;;;;;;;;;;;;;8.44;92.55;102214.72;5040074;28;19937;-73
2023/05/28 00:45:11;;;;;;;;;;;;;;;8.39;92.77;102216.41;5053893;28;19938;-74
2023/05/28 00:47:37;;;;;;;;;;;;;;;8.37;93.13;102219.31;5052761;28;19994;-74
2023/05/28 00:50:05;;;;;;;;;;;;;;;8.46;92.64;102209.97;5068728;28;19938;-73
2023/05/28 00:52:31;;;;;;;;;;;;;;;8.53;92.10;102206.44;5083941;28;19937;-74
2023/05/28 00:54:58;;;;;;;;;;;;;;;8.54;91.67;102202.75;5063297;28;20253;-74
2023/05/28 00:57:24;;;;;;;;;;;;;;;8.52;91.78;102191.47;5032356;28;19981;-74
2023/05/28 00:59:57;;;;;;;;;;;;;;;8.49;92.44;102195.41;5082216;28;19940;-74
2023/05/28 01:02:22;;;;;;;;;;;;;;;8.41;92.74;102201.84;5081441;28;20510;-74
2023/05/28 01:04:48;;;;;;;;;;;;;;;8.36;92.92;102200.84;5050831;28;19937;-74
2023/05/28 01:07:13;;;;;;;;;;;;;;;8.38;93.00;102199.59;5053378;28;21379;-74
2023/05/28 01:09:39;;;;;;;;;;;;;;;8.38;92.80;102202.25;5054070;28;20019;-72
2023/05/28 01:12:06;;;;;;;;;;;;;;;8.38;92.66;102194.25;5036778;28;19941;-74
2023/05/28 01:14:32;;;;;;;;;;;;;;;8.42;92.65;102197.31;5068221;28;19938;-73
2023/05/28 01:16:58;;;;;;;;;;;;;;;8.45;92.72;102186.19;5076473;28;20061;-73
2023/05/28 01:19:27;;;;;;;;;;;;;;;8.40;92.72;102189.53;5036690;28;19946;-74
2023/05/28 01:21:57;;;;;;;;;;;;;;;8.28;92.97;102183.22;5052238;28;20059;-74
2023/05/28 01:24:24;;;;;;;;;;;;;;;8.19;93.02;102187.19;5065299;28;20007;-73
2023/05/28 01:26:50;;;;;;;;;;;;;;;8.21;93.33;102185.16;5033798;28;20049;-73
2023/05/28 01:29:17;;;;;;;;;;;;;;;8.13;93.29;102188.09;5065612;28;19931;-74
2023/05/28 01:31:44;;;;;;;;;;;;;;;8.23;92.89;102193.75;5062563;28;19939;-75
2023/05/28 01:34:10;;;;;;;;;;;;;;;8.16;92.84;102190.31;5067739;28;19937;-72
2023/05/28 01:36:38;;;;;;;;;;;;;;;8.09;93.02;102189.56;5081917;28;20025;-72
2023/05/28 01:39:08;;;;;;;;;;;;;;;8.01;93.35;102190.63;5061179;28;19934;-73
2023/05/28 01:41:35;;;;;;;;;;;;;;;8.06;92.86;102185.47;5066721;28;19958;-77
2023/05/28 01:44:01;;;;;;;;;;;;;;;8.02;92.68;102178.13;5066116;28;20034;-73
2023/05/28 01:46:26;;;;;;;;;;;;;;;8.09;92.50;102181.53;5047008;28;19947;-72
2023/05/28 01:48:53;;;;;;;;;;;;;;;8.02;92.18;102172.78;5046529;28;19957;-75
2023/05/28 01:51:25;;;;;;;;;;;;;;;7.98;91.97;102174.25;5064378;28;19936;-74
2023/05/28 01:53:51;;;;;;;;;;;;;;;7.98;92.46;102172.38;5032594;28;20074;-74
2023/05/28 01:56:20;;;;;;;;;;;;;;;7.98;92.57;102168.91;5048413;28;20021;-73
2023/05/28 01:58:46;;;;;;;;;;;;;;;7.89;92.77;102168.34;5068027;28;19955;-74
2023/05/28 02:01:15;;;;;;;;;;;;;;;7.83;93.24;102172.69;5049029;28;19951;-73
2023/05/28 02:03:42;;;;;;;;;;;;;;;7.76;93.37;102174.59;5067426;28;19938;-74
2023/05/28 02:06:07;;;;;;;;;;;;;;;7.85;93.40;102173.28;5068016;28;20546;-74
2023/05/28 02:08:33;;;;;;;;;;;;;;;7.83;93.39;102170.03;5050950;28;20011;-74
2023/05/28 02:11:00;;;;;;;;;;;;;;;7.82;93.06;102176.41;5046618;28;20305;-74
2023/05/28 02:13:27;;;;;;;;;;;;;;;7.80;93.49;102164.34;5063444;28;19935;-72
2023/05/28 02:15:54;;;;;;;;;;;;;;;7.79;93.67;102170.69;5064028;28;19933;-73
2023/05/28 02:18:20;;;;;;;;;;;;;;;7.71;93.90;102165.59;5053971;28;19956;-73
2023/05/28 02:20:46;;;;;;;;;;;;;;;7.71;94.15;102169.09;5067325;28;19955;-74
2023/05/28 02:23:11;;;;;;;;;;;;;;;7.73;94.34;102167.03;5047248;28;19928;-72
2023/05/28 02:25:38;;;;;;;;;;;;;;;7.66;94.23;102163.59;5048250;28;19958;-75
2023/05/28 02:28:03;;;;;;;;;;;;;;;7.60;94.69;102162.63;5046570;28;20673;-74
2023/05/28 02:30:29;;;;;;;;;;;;;;;7.67;94.41;102162.56;5063959;28;19936;-73
2023/05/28 02:32:55;;;;;;;;;;;;;;;7.70;93.48;102167.47;5069204;28;19946;-76
2023/05/28 02:35:22;;;;;;;;;;;;;;;7.64;94.11;102160.31;5050711;28;20594;-73
2023/05/28 02:37:48;;;;;;;;;;;;;;;7.61;94.43;102155.44;5050668;28;20430;-75
2023/05/28 02:40:15;;;;;;;;;;;;;;;7.51;94.57;102155.88;5051906;28;19943;-74
2023/05/28 02:42:40;;;;;;;;;;;;;;;7.47;94.52;102161.88;5042459;28;19974;-73
2023/05/28 02:45:06;;;;;;;;;;;;;;;7.41;94.32;102165.41;5060457;28;19975;-74
2023/05/28 02:47:32;;;;;;;;;;;;;;;7.31;94.71;102160.50;5063476;28;19961;-75
2023/05/28 02:49:58;;;;;;;;;;;;;;;7.26;94.65;102171.00;5033795;28;19982;-73
2023/05/28 02:52:24;;;;;;;;;;;;;;;7.36;94.93;102166.03;5062775;28;19972;-75
2023/05/28 02:54:49;;;;;;;;;;;;;;;7.27;94.59;102169.97;5059009;28;19976;-73
2023/05/28 02:57:15;;;;;;;;;;;;;;;7.23;94.88;102164.25;5035060;28;19958;-75
2023/05/28 02:59:41;;;;;;;;;;;;;;;7.20;94.85;102163.88;5033333;28;20006;-74
2023/05/28 03:02:06;;;;;;;;;;;;;;;7.16;95.23;102158.13;5049202;28;19954;-74
2023/05/28 03:04:32;;;;;;;;;;;;;;;7.19;94.78;102163.06;5079280;28;19931;-73
2023/05/28 03:06:58;;;;;;;;;;;;;;;7.24;94.74;102154.41;5064752;28;19955;-74
2023/05/28 03:09:24;;;;;;;;;;;;;;;7.26;94.84;102163.03;5064478;28;19932;-73
2023/05/28 03:11:50;;;;;;;;;;;;;;;7.26;94.42;102163.84;5050677;28;19931;-74
2023/05/28 03:14:15;;;;;;;;;;;;;;;7.26;94.74;102153.16;5066159;28;19937;-74
2023/05/28 03:16:41;;;;;;;;;;;;;;;7.29;95.02;102166.06;5068888;28;19999;-74
2023/05/28 03:19:16;;;;;;;;;;;;;;;7.29;95.17;102166.06;5067579;28;20047;-75
2023/05/28 03:21:41;;;;;;;;;;;;;;;7.27;95.22;102170.78;5037016;28;20411;-74
2023/05/28 03:24:08;;;;;;;;;;;;;;;7.32;95.37;102165.66;5051828;28;19987;-73
2023/05/28 03:26:43;;;;;;;;;;;;;;;7.39;95.04;102169.09;5070012;28;19979;-74
2023/05/28 03:29:08;;;;;;;;;;;;;;;7.46;94.83;102173.56;5069333;28;19936;-75
2023/05/28 03:31:54;;;;;;;;;;;;;;;7.54;94.21;102165.31;5084539;28;19931;-73
2023/05/28 03:34:21;;;;;;;;;;;;;;;7.51;94.43;102165.72;5052469;28;20019;-75
2023/05/28 03:36:46;;;;;;;;;;;;;;;7.53;94.41;102163.69;5082608;28;20480;-73
2023/05/28 03:39:13;;;;;;;;;;;;;;;7.53;94.49;102169.03;5051345;28;19934;-74
2023/05/28 03:41:39;;;;;;;;;;;;;;;7.50;94.76;102177.44;5049731;28;19954;-75
2023/05/28 03:44:06;;;;;;;;;;;;;;;7.46;94.42;102168.25;5065234;28;19931;-73
2023/05/28 03:46:32;;;;;;;;;;;;;;;7.42;94.58;102167.03;5065303;28;20027;-74
2023/05/28 03:49:01;;;;;;;;;;;;;;;7.42;95.16;102164.34;5064287;28;20423;-73
2023/05/28 03:51:27;;;;;;;;;;;;;;;7.42;94.70;102165.19;5053309;28;19952;-73
2023/05/28 03:53:53;;;;;;;;;;;;;;;7.53;94.81;102156.50;5051712;28;19948;-74
2023/05/28 03:56:19;;;;;;;;;;;;;;;7.60;94.76;102159.13;5052906;28;20405;-75
2023/05/28 03:58:47;;;;;;;;;;;;;;;7.61;94.73;102160.75;5043119;28;19958;-74
2023/05/28 04:01:13;;;;;;;;;;;;;;;7.64;94.84;102161.13;5057999;28;19959;-74
2023/05/28 04:03:38;;;;;;;;;;;;;;;7.65;94.85;102157.47;5056882;28;20501;-75
2023/05/28 04:06:04;;;;;;;;;;;;;;;7.67;94.72;102162.56;5072963;28;19945;-73
2023/05/28 04:08:30;;;;;;;;;;;;;;;7.70;94.84;102158.66;5058640;28;20013;-74
2023/05/28 04:10:56;;;;;;;;;;;;;;;7.81;94.60;102166.78;5084392;28;19985;-75
2023/05/28 04:13:22;;;;;;;;;;;;;;;7.91;94.75;102161.75;5052459;28;19935;-75
2023/05/28 04:15:48;;;;;;;;;;;;;;;8.01;94.52;102152.47;5071839;28;19984;-75
2023/05/28 04:18:13;;;;;;;;;;;;;;;8.13;94.23;102156.88;5071179;28;20080;-74
2023/05/28 04:20:41;;;;;;;;;;;;;;;8.24;94.29;102155.34;5043881;28;19998;-74
2023/05/28 04:23:07;;;;;;;;;;;;;;;8.38;93.79;102156.88;5052546;28;19931;-74
2023/05/28 04:25:33;;;;;;;;;;;;;;;8.44;94.26;102157.84;5057998;28;19995;-74
2023/05/28 04:28:00;;;;;;;;;;;;;;;8.51;93.76;102155.13;5057791;28;19952;-74
2023/05/28 04:30:29;;;;;;;;;;;;;;;8.65;93.53;102161.94;5072065;28;19937;-73
2023/05/28 04:32:56;;;;;;;;;;;;;;;8.78;93.79;102152.97;5089991;28;19940;-74
2023/05/28 04:35:22;;;;;;;;;;;;;;;8.88;93.48;102147.94;5069149;28;19970;-75
2023/05/28 04:37:50;;;;;;;;;;;;;;;8.99;93.01;102153.31;5067161;28;19944;-74
2023/05/28 04:40:16;;;;;;;;;;;;;;;9.15;92.54;102161.78;5070596;28;19937;-74
2023/05/28 04:42:42;;;;;;;;;;;;;;;9.25;92.16;102164.72;5053257;28;20409;-75
2023/05/28 04:45:09;;;;;;;;;;;;;;;9.32;92.42;102167.31;5054834;28;20355;-74
2023/05/28 04:47:36;;;;;;;;;;;;;;;9.41;91.72;102166.75;5064527;28;20013;-75
2023/05/28 04:50:04;;;;;;;;;;;;;;;9.65;90.44;102159.66;5048249;28;20430;-75
2023/05/28 04:52:35;;;;;;;;;;;;;;;9.78;89.94;102156.78;5054936;28;19935;-74
2023/05/28 04:55:03;;;;;;;;;;;;;;;9.86;90.21;102163.66;5041419;28;19939;-73
2023/05/28 04:57:29;;;;;;;;;;;;;;;9.92;90.24;102157.38;5063811;28;19952;-75
2023/05/28 04:59:55;;;;;;;;;;;;;;;10.02;89.87;102162.16;5069532;28;19944;-73
2023/05/28 05:02:21;;;;;;;;;;;;;;;10.10;89.07;102162.66;5056471;28;20461;-73
2023/05/28 05:04:47;;;;;;;;;;;;;;;10.26;88.28;102161.16;5090219;28;20398;-73
2023/05/28 05:07:14;;;;;;;;;;;;;;;10.40;87.54;102164.41;5052902;28;20017;-74
2023/05/28 05:09:40;;;;;;;;;;;;;;;10.50;86.35;102156.63;5051757;28;19938;-75
2023/05/28 05:12:06;;;;;;;;;;;;;;;10.66;86.14;102153.22;5038752;28;19938;-75
2023/05/28 05:14:32;;;;;;;;;;;;;;;10.87;84.77;102159.81;5050697;28;19936;-74
2023/05/28 05:16:58;;;;;;;;;;;;;;;11.09;85.45;102159.97;5066826;28;19962;-73
2023/05/28 05:19:25;;;;;;;;;;;;;;;11.28;83.83;102165.16;5064650;28;19933;-74
2023/05/28 05:21:51;;;;;;;;;;;;;;;11.47;82.23;102158.56;5066794;28;19952;-75
2023/05/28 05:24:17;;;;;;;;;;;;;;;11.67;80.96;102150.84;5054629;28;19934;-73
2023/05/28 05:26:42;;;;;;;;;;;;;;;11.90;80.79;102157.16;5055963;28;19935;-73
2023/05/28 05:29:08;;;;;;;;;;;;;;;12.13;80.00;102153.50;5052184;28;19985;-74
2023/05/28 05:31:34;;;;;;;;;;;;;;;12.38;79.11;102155.75;5069202;28;19974;-74
2023/05/28 05:34:00;;;;;;;;;;;;;;;12.64;77.82;102146.97;5054547;28;19933;-73
2023/05/28 05:36:28;;;;;;;;;;;;;;;12.81;76.84;102145.06;5083332;28;20474;-73
2023/05/28 05:39:08;;;;;;;;;;;;;;;13.07;76.05;102139.94;5062476;28;19938;-76
2023/05/28 05:41:53;;;;;;;;;;;;;;;13.35;73.68;102138.94;5088093;28;20185;-74
2023/05/28 05:44:22;;;;;;;;;;;;;;;13.53;73.50;102143.16;5067079;28;19941;-73
2023/05/28 05:46:48;;;;;;;;;;;;;;;13.54;73.96;102139.38;5064983;28;19933;-74
2023/05/28 05:49:14;;;;;;;;;;;;;;;13.52;73.85;102141.53;5061066;28;19936;-75
2023/05/28 05:51:41;;;;;;;;;;;;;;;13.60;74.14;102149.94;5070764;28;19935;-73
2023/05/28 05:54:07;;;;;;;;;;;;;;;13.48;73.58;102135.00;5055772;28;19959;-74
2023/05/28 05:56:32;;;;;;;;;;;;;;;13.59;73.17;102142.13;5064020;28;20431;-74
2023/05/28 05:58:58;;;;;;;;;;;;;;;13.41;73.71;102145.16;5068369;28;19938;-75
2023/05/28 06:01:24;;;;;;;;;;;;;;;13.49;74.62;102152.81;5053216;28;19959;-76
2023/05/28 06:03:50;;;;;;;;;;;;;;;13.50;74.34;102149.06;5040931;28;20031;-74
2023/05/28 06:06:36;;;;;;;;;;;;;;;13.42;74.28;102152.22;5057954;28;19932;-73
2023/05/28 06:09:05;;;;;;;;;;;;;;;13.44;76.67;102150.88;5068940;28;19988;-73
2023/05/28 06:11:48;;;;;;;;;;;;;;;13.24;74.34;102151.47;5066833;28;19932;-75
2023/05/28 06:14:13;;;;;;;;;;;;;;;13.43;74.66;102153.81;5057689;28;19946;-75
2023/05/28 06:16:38;;;;;;;;;;;;;;;13.58;73.89;102152.09;5052202;28;20527;-74
2023/05/28 06:19:04;;;;;;;;;;;;;;;13.85;72.73;102152.03;5066251;28;19939;-74
2023/05/28 06:21:30;;;;;;;;;;;;;;;14.03;71.79;102141.97;5083167;28;19977;-74
2023/05/28 06:23:56;;;;;;;;;;;;;;;14.02;70.64;102154.63;5047914;28;20341;-72
2023/05/28 06:26:22;;;;;;;;;;;;;;;14.17;73.92;102148.53;5035099;28;19939;-74
2023/05/28 06:28:48;;;;;;;;;;;;;;;14.70;72.62;102154.78;5063779;28;20054;-72
2023/05/28 06:31:14;;;;;;;;;;;;;;;14.71;70.76;102148.31;5068176;28;19949;-75
2023/05/28 06:33:40;;;;;;;;;;;;;;;14.95;69.56;102154.88;5051638;28;20037;-75
2023/05/28 06:36:06;;;;;;;;;;;;;;;15.15;72.21;102147.91;5049799;28;19960;-75
2023/05/28 06:38:32;;;;;;;;;;;;;;;15.01;70.62;102156.50;5062005;28;20055;-75
2023/05/28 06:40:58;;;;;;;;;;;;;;;14.93;70.10;102162.41;5049920;28;20685;-75
2023/05/28 06:43:26;;;;;;;;;;;;;;;14.94;70.76;102160.53;5063671;28;19938;-74
2023/05/28 06:46:03;;;;;;;;;;;;;;;14.96;69.32;102161.06;5047746;28;19942;-74
2023/05/28 06:48:29;;;;;;;;;;;;;;;14.75;69.86;102157.47;5060366;28;20335;-74
2023/05/28 06:50:56;;;;;;;;;;;;;;;14.83;68.97;102151.59;5065689;28;19936;-77
2023/05/28 06:53:23;;;;;;;;;;;;;;;15.09;68.96;102162.47;5053315;28;19931;-74
2023/05/28 06:55:48;;;;;;;;;;;;;;;15.43;69.20;102160.13;5052517;28;20523;-74
2023/05/28 06:58:37;;;;;;;;;;;;;;;15.63;68.62;102162.88;5058526;28;19949;-75
2023/05/28 07:01:15;;;;;;;;;;;;;;;15.89;68.42;102161.00;5069624;28;19954;-77
2023/05/28 07:04:07;;;;;;;;;;;;;;;15.63;67.65;102170.97;5046065;28;20023;-74
2023/05/28 07:06:45;;;;;;;;;;;;;;;15.75;66.29;102163.44;5086391;28;20418;-73
2023/05/28 07:09:18;;;;;;;;;;;;;;;16.35;64.54;102169.06;5067660;28;20012;-74
2023/05/28 07:11:44;;;;;;;;;;;;;;;16.69;63.45;102171.94;5067181;28;20410;-73
2023/05/28 07:14:09;;;;;;;;;;;;;;;17.11;62.08;102168.81;5037222;28;19961;-74
2023/05/28 07:16:35;;;;;;;;;;;;;;;17.21;62.23;102162.53;5053819;28;19937;-75
2023/05/28 07:19:00;;;;;;;;;;;;;;;17.41;62.34;102167.03;5062823;28;20008;-75
2023/05/28 07:21:27;;;;;;;;;;;;;;;17.58;61.24;102172.84;5054520;28;19949;-73
2023/05/28 07:23:52;;;;;;;;;;;;;;;17.19;60.97;102170.91;5053556;28;19940;-73
2023/05/28 07:26:18;;;;;;;;;;;;;;;16.93;62.92;102177.53;5067958;28;19932;-73
2023/05/28 07:28:43;;;;;;;;;;;;;;;16.74;62.11;102185.50;5036780;28;19965;-73
2023/05/28 07:31:09;;;;;;;;;;;;;;;16.63;64.12;102191.97;5061066;28;19944;-74
2023/05/28 07:33:35;;;;;;;;;;;;;;;16.60;64.56;102185.22;5050892;28;19942;-74
2023/05/28 07:36:02;;;;;;;;;;;;;;;16.84;64.21;102181.94;5065910;28;19970;-73
2023/05/28 07:38:28;;;;;;;;;;;;;;;16.65;64.19;102184.38;5053856;28;19954;-74
2023/05/28 07:40:57;;;;;;;;;;;;;;;16.40;63.02;102185.28;5065018;28;19950;-74
2023/05/28 07:43:38;;;;;;;;;;;;;;;16.45;64.37;102182.53;5054525;28;19937;-74
2023/05/28 07:46:10;;;;;;;;;;;;;;;16.61;66.71;102180.63;5066088;28;19938;-74
2023/05/28 07:48:43;;;;;;;;;;;;;;;16.47;65.79;102190.41;5069287;28;19956;-74
2023/05/28 07:51:29;;;;;;;;;;;;;;;16.72;63.17;102186.84;5078720;28;20011;-75
2023/05/28 07:54:08;;;;;;;;;;;;;;;16.99;62.45;102179.16;5053892;28;19937;-75
2023/05/28 07:56:34;;;;;;;;;;;;;;;16.72;63.26;102194.94;5057791;28;19933;-74
2023/05/28 07:59:01;;;;;;;;;;;;;;;16.79;62.74;102192.75;5051172;28;19945;-75
2023/05/28 08:01:29;;;;;;;;;;;;;;;16.94;61.46;102184.59;5075947;28;19955;-75
2023/05/28 08:03:55;;;;;;;;;;;;;;;16.96;63.49;102185.13;5048394;28;20378;-72
2023/05/28 08:06:24;;;;;;;;;;;;;;;17.25;63.22;102192.56;5047800;28;20021;-74
2023/05/28 08:08:49;;;;;;;;;;;;;;;17.18;60.89;102185.56;5067915;28;20719;-77
2023/05/28 08:11:16;;;;;;;;;;;;;;;17.38;58.68;102178.41;5035179;28;19938;-76
2023/05/28 08:13:41;;;;;;;;;;;;;;;17.76;59.64;102184.16;5049951;28;19942;-74
2023/05/28 08:16:12;;;;;;;;;;;;;;;17.84;58.22;102181.63;5032763;28;19936;-73
2023/05/28 08:18:57;;;;;;;;;;;;;;;18.01;57.80;102178.50;5054432;28;19954;-73
2023/05/28 08:21:23;;;;;;;;;;;;;;;18.16;56.91;102175.66;5050121;28;20424;-73
2023/05/28 08:23:48;;;;;;;;;;;;;;;18.26;56.91;102172.84;5053768;28;19944;-72
2023/05/28 08:26:14;;;;;;;;;;;;;;;18.86;57.51;102185.25;5066657;28;20433;-74
2023/05/28 08:28:41;;;;;;;;;;;;;;;18.77;55.18;102177.75;5053752;28;19989;-73
2023/05/28 08:31:06;;;;;;;;;;;;;;;18.72;55.64;102172.38;5071117;28;19977;-72
2023/05/28 08:33:55;;;;;;;;;;;;;;;18.87;54.52;102178.72;5081546;28;19937;-78
2023/05/28 08:36:21;;;;;;;;;;;;;;;18.95;55.38;102169.91;5069445;28;19968;-73
2023/05/28 08:38:48;;;;;;;;;;;;;;;19.26;55.57;102178.47;5066224;28;20046;-73
2023/05/28 08:41:14;;;;;;;;;;;;;;;19.78;55.11;102168.44;5033699;28;20030;-74
2023/05/28 08:43:40;;;;;;;;;;;;;;;19.50;54.85;102168.31;5052765;28;19954;-75
2023/05/28 08:46:06;;;;;;;;;;;;;;;19.54;53.13;102171.25;5065075;28;19940;-73
2023/05/28 08:48:40;;;;;;;;;;;;;;;19.72;54.45;102169.66;5068530;28;19951;-75
2023/05/28 08:51:06;;;;;;;;;;;;;;;19.31;53.38;102171.06;5068381;28;19937;-74
2023/05/28 08:53:46;;;;;;;;;;;;;;;19.98;53.43;102164.59;5068893;28;19945;-73
2023/05/28 08:56:13;;;;;;;;;;;;;;;19.95;53.69;102166.00;5058574;28;19942;-75
2023/05/28 08:58:39;;;;;;;;;;;;;;;20.23;51.79;102169.56;5038969;28;19974;-73
2023/05/28 09:01:07;;;;;;;;;;;;;;;20.02;51.06;102160.16;5049293;28;20057;-75
2023/05/28 09:03:39;;;;;;;;;;;;;;;20.60;51.28;102154.22;5054407;28;20001;-75
2023/05/28 09:06:16;;;;;;;;;;;;;;;21.05;49.47;102157.06;5069319;28;19926;-74
2023/05/28 09:08:45;;;;;;;;;;;;;;;20.56;48.40;102166.81;5059923;28;19966;-74
2023/05/28 09:11:20;;;;;;;;;;;;;;;20.67;51.38;102162.78;5039465;28;19936;-74
2023/05/28 09:13:47;;;;;;;;;;;;;;;20.39;49.34;102162.75;5071824;28;20353;-74
2023/05/28 09:16:22;;;;;;;;;;;;;;;20.99;49.07;102151.72;5070933;28;19946;-74
2023/05/28 09:18:50;;;;;;;;;;;;;;;21.11;48.94;102147.69;5048119;28;20458;-73
2023/05/28 09:21:20;;;;;;;;;;;;;;;21.07;49.91;102150.22;5072520;28;20955;-75
2023/05/28 09:23:49;;;;;;;;;;;;;;;20.89;47.81;102153.88;5085991;28;19929;-75
2023/05/28 09:26:35;;;;;;;;;;;;;;;21.53;50.04;102147.25;5083603;28;19937;-75
2023/05/28 09:29:36;;;;;;;;;;;;;;;21.08;46.19;102143.66;4791530;23;20035;-74
2023/05/28 09:32:02;;;;;;;;;;;;;;;21.07;47.63;102146.69;5043268;28;19945;-70
2023/05/28 09:34:28;;;;;;;;;;;;;;;21.50;47.02;102147.88;5039744;28;20312;-73
2023/05/28 09:37:03;;;;;;;;;;;;;;;21.16;47.27;102148.38;5053951;28;19976;-73
2023/05/28 09:39:33;;;;;;;;;;;;;;;21.18;46.81;102145.34;5022319;28;19933;-71
2023/05/28 09:42:12;;;;;;;;;;;;;;;21.60;46.73;102141.34;5026204;28;19967;-76
2023/05/28 09:44:40;;;;;;;;;;;;;;;21.37;46.46;102148.75;5014578;28;20352;-76
2023/05/28 09:47:12;;;;;;;;;;;;;;;21.53;45.29;102141.00;5038310;28;19955;-73
2023/05/28 09:49:38;;;;;;;;;;;;;;;21.71;43.62;102134.56;5021993;28;19962;-74
2023/05/28 09:52:04;;;;;;;;;;;;;;;21.34;44.08;102137.63;5041059;28;20406;-74
2023/05/28 09:54:31;;;;;;;;;;;;;;;21.70;49.12;102135.66;5029497;28;20379;-72
2023/05/28 09:57:02;;;;;;;;;;;;;;;21.94;44.06;102143.50;5040983;28;19977;-74
2023/05/28 09:59:30;;;;;;;;;;;;;;;22.42;44.79;102139.25;5046696;28;19933;-75
2023/05/28 10:02:13;;;;;;;;;;;;;;;22.48;41.29;102136.06;5007928;28;20395;-73
2023/05/28 10:04:40;;;;;;;;;;;;;;;22.09;42.13;102136.88;5028046;28;19935;-72
2023/05/28 10:07:05;;;;;;;;;;;;;;;22.75;40.91;102135.00;5011531;28;20309;-73
2023/05/28 10:09:32;;;;;;;;;;;;;;;21.78;44.05;102132.19;5032649;28;19941;-73
2023/05/28 10:12:18;;;;;;;;;;;;;;;21.99;43.42;102127.00;5014439;28;19995;-74
2023/05/28 10:14:46;;;;;;;;;;;;;;;21.62;43.60;102132.91;5043537;28;19933;-73
2023/05/28 10:17:13;;;;;;;;;;;;;;;21.93;42.17;102128.25;5025807;28;19958;-73
2023/05/28 10:19:40;;;;;;;;;;;;;;;22.56;41.85;102129.84;5027480;28;19929;-73
2023/05/28 10:22:07;;;;;;;;;;;;;;;22.17;41.78;102121.69;5028945;28;19957;-73
2023/05/28 10:24:33;;;;;;;;;;;;;;;22.46;40.24;102118.41;5046496;28;19956;-75
2023/05/28 10:26:59;;;;;;;;;;;;;;;23.01;44.83;102121.41;5000368;28;19953;-73
2023/05/28 10:29:25;;;;;;;;;;;;;;;22.68;40.47;102120.22;5012120;28;19941;-73
2023/05/28 10:32:15;;;;;;;;;;;;;;;22.82;40.35;102121.69;5013357;28;19936;-73
2023/05/28 10:34:43;;;;;;;;;;;;;;;22.67;40.14;102113.94;5032459;28;19938;-75
2023/05/28 10:37:10;;;;;;;;;;;;;;;23.27;40.30;102117.88;5024382;28;19947;-73
2023/05/28 10:39:38;;;;;;;;;;;;;;;23.50;39.46;102116.56;5008544;28;19928;-73
2023/05/28 10:42:05;;;;;;;;;;;;;;;23.79;38.91;102126.06;5007922;28;20485;-74
2023/05/28 10:44:48;;;;;;;;;;;;;;;24.29;37.29;102125.38;5024265;28;19931;-75
2023/05/28 10:47:14;;;;;;;;;;;;;;;23.53;37.47;102117.88;5035351;28;19960;-75
2023/05/28 10:49:57;;;;;;;;;;;;;;;23.56;37.99;102118.00;5021064;28;19936;-73
2023/05/28 10:52:25;;;;;;;;;;;;;;;23.55;42.74;102124.59;5018436;28;19945;-73
2023/05/28 10:54:52;;;;;;;;;;;;;;;23.12;39.40;102116.44;5022411;28;19939;-73
2023/05/28 10:57:21;;;;;;;;;;;;;;;23.72;37.57;102114.81;5040820;28;19955;-74
2023/05/28 10:59:47;;;;;;;;;;;;;;;23.23;39.41;102114.97;5018654;28;20000;-75
2023/05/28 11:02:25;;;;;;;;;;;;;;;22.39;41.20;102118.06;5018313;28;20411;-71
2023/05/28 11:05:00;;;;;;;;;;;;;;;21.86;42.35;102122.44;5041354;28;19939;-72
2023/05/28 11:07:35;;;;;;;;;;;;;;;21.74;42.28;102116.75;5006865;28;19958;-73
2023/05/28 11:10:02;;;;;;;;;;;;;;;22.41;40.60;102116.59;5023046;28;19987;-75
2023/05/28 11:12:29;;;;;;;;;;;;;;;23.09;38.97;102108.88;5024197;28;20380;-74
2023/05/28 11:14:55;;;;;;;;;;;;;;;23.62;41.52;102116.75;5025404;28;19925;-73
2023/05/28 11:17:21;;;;;;;;;;;;;;;22.36;39.30;102111.31;5006411;28;19977;-73
2023/05/28 11:19:49;;;;;;;;;;;;;;;22.84;40.45;102116.72;5034529;28;19939;-73
2023/05/28 11:22:17;;;;;;;;;;;;;;;23.01;38.61;102113.22;5022204;28;20064;-75
2023/05/28 11:24:49;;;;;;;;;;;;;;;23.56;38.54;102106.25;5022939;28;19936;-73
2023/05/28 11:27:15;;;;;;;;;;;;;;;24.13;38.06;102104.03;5031995;28;19991;-73
2023/05/28 11:29:40;;;;;;;;;;;;;;;24.18;36.01;102105.75;5024169;28;20380;-73
2023/05/28 11:32:06;;;;;;;;;;;;;;;23.90;37.24;102105.41;5020728;28;20404;-74
2023/05/28 11:34:31;;;;;;;;;;;;;;;23.97;37.27;102092.81;5023047;28;20042;-74
2023/05/28 11:36:58;;;;;;;;;;;;;;;24.04;37.21;102094.25;5021218;28;19953;-73
2023/05/28 11:39:24;;;;;;;;;;;;;;;24.69;34.15;102099.22;5037720;28;19942;-73
2023/05/28 11:41:50;;;;;;;;;;;;;;;24.04;35.38;102100.50;4998664;28;20005;-71
2023/05/28 11:44:21;;;;;;;;;;;;;;;24.14;35.77;102088.41;5026270;28;19961;-73
2023/05/28 11:46:53;;;;;;;;;;;;;;;23.84;35.96;102098.50;5039981;28;19931;-73
2023/05/28 11:49:19;;;;;;;;;;;;;;;24.71;34.83;102096.97;5025018;28;19979;-73
2023/05/28 11:51:45;;;;;;;;;;;;;;;25.38;33.04;102095.16;5021274;28;19929;-73
2023/05/28 11:54:10;;;;;;;;;;;;;;;24.72;32.90;102103.22;5025225;28;20303;-73
2023/05/28 11:56:36;;;;;;;;;;;;;;;25.25;33.97;102091.56;5022003;28;20354;-74
2023/05/28 11:59:03;;;;;;;;;;;;;;;25.41;33.41;102091.75;5026180;28;20028;-73
2023/05/28 12:01:35;;;;;;;;;;;;;;;25.75;31.23;102079.63;5003458;28;20588;-72
2023/05/28 12:04:05;;;;;;;;;;;;;;;25.97;31.68;102081.13;5007015;28;19940;-72
2023/05/28 12:06:31;;;;;;;;;;;;;;;26.23;35.41;102083.53;5040241;28;19938;-72
2023/05/28 12:09:01;;;;;;;;;;;;;;;24.98;33.52;102076.44;5017848;28;19953;-73
2023/05/28 12:11:27;;;;;;;;;;;;;;;23.72;36.24;102081.97;5036363;28;19935;-73
2023/05/28 12:13:53;;;;;;;;;;;;;;;23.21;38.43;102086.38;5002977;28;19928;-74
2023/05/28 12:16:18;;;;;;;;;;;;;;;22.45;38.88;102082.09;5040081;28;19936;-72
2023/05/28 12:18:44;;;;;;;;;;;;;;;22.26;40.91;102087.84;5034264;28;19945;-73
2023/05/28 12:21:18;;;;;;;;;;;;;;;22.06;45.52;102085.63;5023607;28;19955;-73
2023/05/28 12:23:46;;;;;;;;;;;;;;;21.82;44.96;102074.31;5009328;28;19985;-76
2023/05/28 12:26:13;;;;;;;;;;;;;;;21.65;42.47;102073.09;5027965;28;20730;-73
2023/05/28 12:28:40;;;;;;;;;;;;;;;23.02;38.78;102076.56;5044009;28;19968;-74
2023/05/28 12:31:08;;;;;;;;;;;;;;;24.71;40.23;102075.03;5007969;28;19933;-72
2023/05/28 12:33:34;;;;;;;;;;;;;;;25.17;33.80;102075.19;5011517;28;19938;-73
2023/05/28 12:36:00;;;;;;;;;;;;;;;26.22;33.96;102064.69;5030979;28;19945;-72
2023/05/28 12:38:28;;;;;;;;;;;;;;;26.23;31.94;102066.28;5024186;28;20419;-73
2023/05/28 12:40:53;;;;;;;;;;;;;;;26.86;37.30;102070.16;5027874;28;19935;-73
2023/05/28 12:43:21;;;;;;;;;;;;;;;26.42;35.92;102065.69;5010759;28;19991;-73
2023/05/28 12:45:46;;;;;;;;;;;;;;;24.65;37.18;102070.91;5024064;28;19932;-73